sensor_id;sensor_type;location;lat;lon;timestamp;pressure;altitude;pressure_sealevel;temperature;humidity
9839;BME280;4958;48.150;11.506;2022-11-11T00:01:26;97008.22;;;10.24;75.36
9839;BME280;4958;48.150;11.506;2022-11-11T00:03:54;96999.00;;;10.21;75.91
9839;BME280;4958;48.150;11.506;2022-11-11T00:06:21;96997.13;;;10.23;75.62
9839;BME280;4958;48.150;11.506;2022-11-11T00:08:48;96996.97;;;10.25;75.42
9839;BME280;4958;48.150;11.506;2022-11-11T00:11:15;97002.25;;;10.23;75.29
9839;BME280;4958;48.150;11.506;2022-11-11T00:13:42;97000.94;;;10.19;74.86
9839;BME280;4958;48.150;11.506;2022-11-11T00:16:11;97007.69;;;10.11;74.99
9839;BME280;4958;48.150;11.506;2022-11-11T00:18:38;96999.81;;;10.12;74.81
9839;BME280;4958;48.150;11.506;2022-11-11T00:21:23;97010.94;;;10.13;74.57
9839;BME280;4958;48.150;11.506;2022-11-11T00:24:21;97004.69;;;10.15;74.52
9839;BME280;4958;48.150;11.506;2022-11-11T00:27:05;97014.31;;;10.13;73.66
9839;BME280;4958;48.150;11.506;2022-11-11T00:29:32;97009.22;;;9.94;74.28
9839;BME280;4958;48.150;11.506;2022-11-11T00:31:58;96999.19;;;9.91;74.42
9839;BME280;4958;48.150;11.506;2022-11-11T00:34:43;97000.41;;;9.87;74.38
9839;BME280;4958;48.150;11.506;2022-11-11T00:37:31;97001.25;;;9.78;74.54
9839;BME280;4958;48.150;11.506;2022-11-11T00:39:56;97009.09;;;9.76;74.75
9839;BME280;4958;48.150;11.506;2022-11-11T00:42:23;97003.13;;;9.76;75.07
9839;BME280;4958;48.150;11.506;2022-11-11T00:44:50;96998.66;;;9.78;74.80
9839;BME280;4958;48.150;11.506;2022-11-11T00:47:16;96998.25;;;9.73;75.15
9839;BME280;4958;48.150;11.506;2022-11-11T00:50:00;96990.53;;;9.73;74.82
9839;BME280;4958;48.150;11.506;2022-11-11T00:52:46;96994.72;;;9.64;74.02
9839;BME280;4958;48.150;11.506;2022-11-11T00:55:13;96986.06;;;9.65;74.09
9839;BME280;4958;48.150;11.506;2022-11-11T00:57:39;96982.81;;;9.53;74.88
9839;BME280;4958;48.150;11.506;2022-11-11T01:00:06;96979.03;;;9.48;74.94
9839;BME280;4958;48.150;11.506;2022-11-11T01:02:33;96980.53;;;9.50;75.61
9839;BME280;4958;48.150;11.506;2022-11-11T01:05:00;96976.59;;;9.56;75.51
9839;BME280;4958;48.150;11.506;2022-11-11T01:07:26;96979.84;;;9.58;75.53
9839;BME280;4958;48.150;11.506;2022-11-11T01:09:54;96986.75;;;9.48;76.54
9839;BME280;4958;48.150;11.506;2022-11-11T01:12:20;96981.47;;;9.40;77.11
9839;BME280;4958;48.150;11.506;2022-11-11T01:14:47;96984.56;;;9.43;76.35
9839;BME280;4958;48.150;11.506;2022-11-11T01:17:13;96979.16;;;9.46;76.85
9839;BME280;4958;48.150;11.506;2022-11-11T01:19:40;96976.88;;;9.53;76.07
9839;BME280;4958;48.150;11.506;2022-11-11T01:22:06;96987.69;;;9.47;75.77
9839;BME280;4958;48.150;11.506;2022-11-11T01:24:32;96988.50;;;9.47;75.53
9839;BME280;4958;48.150;11.506;2022-11-11T01:27:00;96988.63;;;9.46;75.29
9839;BME280;4958;48.150;11.506;2022-11-11T01:29:27;96986.88;;;9.46;75.01
9839;BME280;4958;48.150;11.506;2022-11-11T01:31:53;96989.19;;;9.49;74.49
9839;BME280;4958;48.150;11.506;2022-11-11T01:34:20;96990.81;;;9.41;74.42
9839;BME280;4958;48.150;11.506;2022-11-11T01:36:46;96981.63;;;9.38;74.33
9839;BME280;4958;48.150;11.506;2022-11-11T01:39:13;96976.47;;;9.38;74.54
9839;BME280;4958;48.150;11.506;2022-11-11T01:41:39;96977.84;;;9.42;74.38
9839;BME280;4958;48.150;11.506;2022-11-11T01:44:17;96988.25;;;9.41;73.61
9839;BME280;4958;48.150;11.506;2022-11-11T01:46:46;96988.63;;;9.26;73.88
9839;BME280;4958;48.150;11.506;2022-11-11T01:49:22;96984.28;;;9.27;73.75
9839;BME280;4958;48.150;11.506;2022-11-11T01:51:55;96987.69;;;9.18;73.78
9839;BME280;4958;48.150;11.506;2022-11-11T01:54:27;96993.38;;;9.21;73.55
9839;BME280;4958;48.150;11.506;2022-11-11T01:56:58;96993.63;;;9.18;73.46
9839;BME280;4958;48.150;11.506;2022-11-11T01:59:27;96991.31;;;9.15;73.54
9839;BME280;4958;48.150;11.506;2022-11-11T02:01:56;96992.66;;;9.00;73.77
9839;BME280;4958;48.150;11.506;2022-11-11T02:04:23;96985.50;;;9.04;73.56
9839;BME280;4958;48.150;11.506;2022-11-11T02:07:08;96981.31;;;9.03;73.49
9839;BME280;4958;48.150;11.506;2022-11-11T02:09:38;96979.81;;;9.00;73.70
9839;BME280;4958;48.150;11.506;2022-11-11T02:12:08;96975.88;;;8.96;73.80
9839;BME280;4958;48.150;11.506;2022-11-11T02:14:57;96983.03;;;8.92;73.65
9839;BME280;4958;48.150;11.506;2022-11-11T02:17:25;96984.94;;;9.00;73.20
9839;BME280;4958;48.150;11.506;2022-11-11T02:19:55;96983.56;;;8.96;73.74
9839;BME280;4958;48.150;11.506;2022-11-11T02:22:27;96990.75;;;9.02;73.35
9839;BME280;4958;48.150;11.506;2022-11-11T02:24:57;96988.72;;;8.96;73.16
9839;BME280;4958;48.150;11.506;2022-11-11T02:27:26;96989.91;;;8.92;72.98
9839;BME280;4958;48.150;11.506;2022-11-11T02:29:57;96980.59;;;8.91;72.88
9839;BME280;4958;48.150;11.506;2022-11-11T02:32:25;96980.44;;;8.83;73.34
9839;BME280;4958;48.150;11.506;2022-11-11T02:34:51;96987.91;;;8.95;72.92
9839;BME280;4958;48.150;11.506;2022-11-11T02:37:20;96990.47;;;8.95;72.79
9839;BME280;4958;48.150;11.506;2022-11-11T02:39:49;96992.63;;;8.90;72.17
9839;BME280;4958;48.150;11.506;2022-11-11T02:42:18;96995.41;;;8.78;72.56
9839;BME280;4958;48.150;11.506;2022-11-11T02:44:47;96997.19;;;8.77;72.53
9839;BME280;4958;48.150;11.506;2022-11-11T02:47:14;96994.47;;;8.79;72.66
9839;BME280;4958;48.150;11.506;2022-11-11T02:49:40;96992.03;;;8.77;72.67
9839;BME280;4958;48.150;11.506;2022-11-11T02:52:07;96999.19;;;8.74;72.86
9839;BME280;4958;48.150;11.506;2022-11-11T02:54:33;97011.34;;;8.72;72.73
9839;BME280;4958;48.150;11.506;2022-11-11T02:56:59;97007.72;;;8.74;72.66
9839;BME280;4958;48.150;11.506;2022-11-11T02:59:38;97011.59;;;8.69;72.94
9839;BME280;4958;48.150;11.506;2022-11-11T03:02:05;97012.13;;;8.62;72.70
9839;BME280;4958;48.150;11.506;2022-11-11T03:04:32;97016.03;;;8.57;72.44
9839;BME280;4958;48.150;11.506;2022-11-11T03:06:59;97018.47;;;8.58;72.61
9839;BME280;4958;48.150;11.506;2022-11-11T03:09:26;97028.53;;;8.50;73.19
9839;BME280;4958;48.150;11.506;2022-11-11T03:11:52;97025.97;;;8.50;72.89
9839;BME280;4958;48.150;11.506;2022-11-11T03:14:19;97033.00;;;8.48;73.21
9839;BME280;4958;48.150;11.506;2022-11-11T03:16:46;97042.75;;;8.54;73.39
9839;BME280;4958;48.150;11.506;2022-11-11T03:19:30;97042.94;;;8.62;73.10
9839;BME280;4958;48.150;11.506;2022-11-11T03:21:57;97049.72;;;8.63;72.97
9839;BME280;4958;48.150;11.506;2022-11-11T03:24:23;97044.88;;;8.49;72.75
9839;BME280;4958;48.150;11.506;2022-11-11T03:27:09;97058.94;;;8.45;73.14
9839;BME280;4958;48.150;11.506;2022-11-11T03:29:36;97060.41;;;8.48;72.61
9839;BME280;4958;48.150;11.506;2022-11-11T03:32:04;97060.56;;;8.46;72.38
9839;BME280;4958;48.150;11.506;2022-11-11T03:34:30;97063.88;;;8.37;73.05
9839;BME280;4958;48.150;11.506;2022-11-11T03:36:57;97068.75;;;8.40;72.80
9839;BME280;4958;48.150;11.506;2022-11-11T03:39:41;97066.81;;;8.32;73.29
9839;BME280;4958;48.150;11.506;2022-11-11T03:42:07;97065.63;;;8.37;73.44
9839;BME280;4958;48.150;11.506;2022-11-11T03:44:33;97072.28;;;8.39;73.81
9839;BME280;4958;48.150;11.506;2022-11-11T03:47:00;97071.31;;;8.40;74.21
9839;BME280;4958;48.150;11.506;2022-11-11T03:49:28;97073.66;;;8.43;73.96
9839;BME280;4958;48.150;11.506;2022-11-11T03:51:54;97064.44;;;8.41;74.55
9839;BME280;4958;48.150;11.506;2022-11-11T03:54:20;97062.81;;;8.40;74.29
9839;BME280;4958;48.150;11.506;2022-11-11T03:56:47;97065.94;;;8.43;74.84
9839;BME280;4958;48.150;11.506;2022-11-11T03:59:14;97056.91;;;8.49;74.63
9839;BME280;4958;48.150;11.506;2022-11-11T04:01:40;97065.75;;;8.56;74.16
9839;BME280;4958;48.150;11.506;2022-11-11T04:04:24;97063.72;;;8.59;74.31
9839;BME280;4958;48.150;11.506;2022-11-11T04:07:10;97061.84;;;8.61;75.18
9839;BME280;4958;48.150;11.506;2022-11-11T04:09:54;97059.69;;;8.66;74.59
9839;BME280;4958;48.150;11.506;2022-11-11T04:12:38;97058.63;;;8.69;74.94
9839;BME280;4958;48.150;11.506;2022-11-11T04:15:20;97058.50;;;8.71;74.68
9839;BME280;4958;48.150;11.506;2022-11-11T04:18:04;97042.28;;;8.70;74.45
9839;BME280;4958;48.150;11.506;2022-11-11T04:20:31;97043.66;;;8.74;74.13
9839;BME280;4958;48.150;11.506;2022-11-11T04:23:16;97035.25;;;8.72;74.83
9839;BME280;4958;48.150;11.506;2022-11-11T04:25:42;97041.34;;;8.71;74.71
9839;BME280;4958;48.150;11.506;2022-11-11T04:28:14;97036.22;;;8.71;74.89
9839;BME280;4958;48.150;11.506;2022-11-11T04:30:59;97033.25;;;8.76;74.92
9839;BME280;4958;48.150;11.506;2022-11-11T04:33:25;97027.69;;;8.71;74.47
9839;BME280;4958;48.150;11.506;2022-11-11T04:35:51;97021.88;;;8.69;74.10
9839;BME280;4958;48.150;11.506;2022-11-11T04:38:18;97026.41;;;8.55;74.24
9839;BME280;4958;48.150;11.506;2022-11-11T04:41:02;97033.94;;;8.47;74.32
9839;BME280;4958;48.150;11.506;2022-11-11T04:43:29;97032.50;;;8.54;74.21
9839;BME280;4958;48.150;11.506;2022-11-11T04:45:57;97031.16;;;8.60;74.20
9839;BME280;4958;48.150;11.506;2022-11-11T04:48:22;97034.44;;;8.62;74.17
9839;BME280;4958;48.150;11.506;2022-11-11T04:50:49;97041.00;;;8.55;74.36
9839;BME280;4958;48.150;11.506;2022-11-11T04:53:16;97044.28;;;8.36;75.04
9839;BME280;4958;48.150;11.506;2022-11-11T04:55:44;97051.03;;;8.37;75.04
9839;BME280;4958;48.150;11.506;2022-11-11T04:58:30;97049.88;;;8.41;74.92
9839;BME280;4958;48.150;11.506;2022-11-11T05:00:57;97056.50;;;8.44;75.23
9839;BME280;4958;48.150;11.506;2022-11-11T05:03:24;97049.06;;;8.50;75.11
9839;BME280;4958;48.150;11.506;2022-11-11T05:05:52;97045.06;;;8.57;74.47
9839;BME280;4958;48.150;11.506;2022-11-11T05:08:37;97045.56;;;8.51;74.21
9839;BME280;4958;48.150;11.506;2022-11-11T05:11:26;97038.00;;;8.50;74.55
9839;BME280;4958;48.150;11.506;2022-11-11T05:13:54;97046.94;;;8.55;73.96
9839;BME280;4958;48.150;11.506;2022-11-11T05:16:40;97042.41;;;8.38;73.37
9839;BME280;4958;48.150;11.506;2022-11-11T05:19:25;97049.28;;;8.17;73.40
9839;BME280;4958;48.150;11.506;2022-11-11T05:22:13;97044.25;;;8.15;73.89
9839;BME280;4958;48.150;11.506;2022-11-11T05:24:41;97043.19;;;8.18;73.54
9839;BME280;4958;48.150;11.506;2022-11-11T05:27:27;97048.53;;;8.26;73.50
9839;BME280;4958;48.150;11.506;2022-11-11T05:29:54;97052.56;;;8.28;73.36
9839;BME280;4958;48.150;11.506;2022-11-11T05:32:21;97041.38;;;8.29;72.93
9839;BME280;4958;48.150;11.506;2022-11-11T05:34:48;97049.34;;;8.26;72.65
9839;BME280;4958;48.150;11.506;2022-11-11T05:37:15;97051.91;;;8.26;72.48
9839;BME280;4958;48.150;11.506;2022-11-11T05:39:42;97063.16;;;8.14;72.98
9839;BME280;4958;48.150;11.506;2022-11-11T05:42:09;97069.91;;;8.15;72.98
9839;BME280;4958;48.150;11.506;2022-11-11T05:44:37;97071.75;;;8.04;73.71
9839;BME280;4958;48.150;11.506;2022-11-11T05:47:04;97086.94;;;7.63;75.30
9839;BME280;4958;48.150;11.506;2022-11-11T05:49:30;97094.16;;;7.70;75.72
9839;BME280;4958;48.150;11.506;2022-11-11T05:51:57;97100.38;;;7.88;75.55
9839;BME280;4958;48.150;11.506;2022-11-11T05:54:23;97103.19;;;7.74;75.78
9839;BME280;4958;48.150;11.506;2022-11-11T05:56:50;97103.91;;;7.76;76.04
9839;BME280;4958;48.150;11.506;2022-11-11T05:59:16;97106.91;;;7.81;75.66
9839;BME280;4958;48.150;11.506;2022-11-11T06:01:45;97109.47;;;7.81;75.51
9839;BME280;4958;48.150;11.506;2022-11-11T06:04:11;97107.78;;;7.91;75.83
9839;BME280;4958;48.150;11.506;2022-11-11T06:06:38;97100.31;;;7.99;75.20
9839;BME280;4958;48.150;11.506;2022-11-11T06:09:06;97108.59;;;8.03;75.16
9839;BME280;4958;48.150;11.506;2022-11-11T06:11:33;97106.84;;;8.03;75.01
9839;BME280;4958;48.150;11.506;2022-11-11T06:14:01;97122.91;;;8.05;74.74
9839;BME280;4958;48.150;11.506;2022-11-11T06:16:27;97121.03;;;8.07;74.69
9839;BME280;4958;48.150;11.506;2022-11-11T06:18:55;97122.53;;;8.10;74.76
9839;BME280;4958;48.150;11.506;2022-11-11T06:21:23;97121.91;;;8.17;74.66
9839;BME280;4958;48.150;11.506;2022-11-11T06:23:49;97130.06;;;8.22;74.39
9839;BME280;4958;48.150;11.506;2022-11-11T06:26:16;97117.13;;;8.24;74.54
9839;BME280;4958;48.150;11.506;2022-11-11T06:28:43;97129.72;;;8.27;74.17
9839;BME280;4958;48.150;11.506;2022-11-11T06:31:12;97140.00;;;8.16;76.92
9839;BME280;4958;48.150;11.506;2022-11-11T06:33:40;97143.50;;;8.15;74.09
9839;BME280;4958;48.150;11.506;2022-11-11T06:36:09;97146.06;;;8.15;74.57
9839;BME280;4958;48.150;11.506;2022-11-11T06:38:37;97140.91;;;8.26;73.94
9839;BME280;4958;48.150;11.506;2022-11-11T06:41:04;97139.56;;;8.31;73.53
9839;BME280;4958;48.150;11.506;2022-11-11T06:43:31;97151.03;;;8.27;73.20
9839;BME280;4958;48.150;11.506;2022-11-11T06:45:57;97158.16;;;8.35;73.29
9839;BME280;4958;48.150;11.506;2022-11-11T06:48:25;97165.47;;;8.40;73.20
9839;BME280;4958;48.150;11.506;2022-11-11T06:50:52;97165.47;;;8.40;72.91
9839;BME280;4958;48.150;11.506;2022-11-11T06:53:21;97167.56;;;8.46;72.94
9839;BME280;4958;48.150;11.506;2022-11-11T06:55:51;97173.56;;;8.24;74.01
9839;BME280;4958;48.150;11.506;2022-11-11T06:58:19;97179.25;;;7.95;76.32
9839;BME280;4958;48.150;11.506;2022-11-11T07:00:47;97178.66;;;7.92;76.44
9839;BME280;4958;48.150;11.506;2022-11-11T07:03:15;97188.34;;;8.00;76.20
9839;BME280;4958;48.150;11.506;2022-11-11T07:05:42;97190.66;;;8.03;75.82
9839;BME280;4958;48.150;11.506;2022-11-11T07:08:11;97192.47;;;7.80;77.58
9839;BME280;4958;48.150;11.506;2022-11-11T07:10:44;97197.63;;;7.69;78.96
9839;BME280;4958;48.150;11.506;2022-11-11T07:13:11;97204.69;;;7.76;79.01
9839;BME280;4958;48.150;11.506;2022-11-11T07:15:40;97208.03;;;7.99;77.87
9839;BME280;4958;48.150;11.506;2022-11-11T07:18:07;97214.41;;;8.16;77.56
9839;BME280;4958;48.150;11.506;2022-11-11T07:20:33;97221.97;;;8.17;77.34
9839;BME280;4958;48.150;11.506;2022-11-11T07:23:00;97224.09;;;8.12;77.71
9839;BME280;4958;48.150;11.506;2022-11-11T07:25:26;97217.88;;;8.26;77.03
9839;BME280;4958;48.150;11.506;2022-11-11T07:27:57;97219.63;;;8.37;76.27
9839;BME280;4958;48.150;11.506;2022-11-11T07:30:24;97215.94;;;8.50;75.58
9839;BME280;4958;48.150;11.506;2022-11-11T07:32:51;97216.47;;;8.65;74.77
9839;BME280;4958;48.150;11.506;2022-11-11T07:35:19;97220.16;;;8.72;74.63
9839;BME280;4958;48.150;11.506;2022-11-11T07:37:46;97223.78;;;8.70;75.20
9839;BME280;4958;48.150;11.506;2022-11-11T07:40:14;97224.94;;;8.77;75.09
9839;BME280;4958;48.150;11.506;2022-11-11T07:42:42;97221.91;;;8.92;74.94
9839;BME280;4958;48.150;11.506;2022-11-11T07:45:12;97219.03;;;9.07;74.01
9839;BME280;4958;48.150;11.506;2022-11-11T07:47:46;97218.41;;;9.14;73.57
9839;BME280;4958;48.150;11.506;2022-11-11T07:50:14;97211.00;;;9.21;74.09
9839;BME280;4958;48.150;11.506;2022-11-11T07:52:47;97220.25;;;9.33;73.60
9839;BME280;4958;48.150;11.506;2022-11-11T07:55:13;97219.00;;;9.27;73.38
9839;BME280;4958;48.150;11.506;2022-11-11T07:57:40;97217.44;;;9.46;73.25
9839;BME280;4958;48.150;11.506;2022-11-11T08:00:07;97215.50;;;9.59;73.25
9839;BME280;4958;48.150;11.506;2022-11-11T08:02:41;97207.97;;;9.77;72.21
9839;BME280;4958;48.150;11.506;2022-11-11T08:05:11;97214.88;;;9.86;72.30
9839;BME280;4958;48.150;11.506;2022-11-11T08:07:38;97216.38;;;9.88;71.89
9839;BME280;4958;48.150;11.506;2022-11-11T08:10:07;97220.44;;;9.91;72.08
9839;BME280;4958;48.150;11.506;2022-11-11T08:12:33;97214.78;;;9.97;71.57
9839;BME280;4958;48.150;11.506;2022-11-11T08:15:18;97224.41;;;10.04;71.95
9839;BME280;4958;48.150;11.506;2022-11-11T08:17:46;97213.44;;;10.12;71.53
9839;BME280;4958;48.150;11.506;2022-11-11T08:20:12;97210.25;;;10.20;71.21
9839;BME280;4958;48.150;11.506;2022-11-11T08:22:40;97205.50;;;10.25;71.33
9839;BME280;4958;48.150;11.506;2022-11-11T08:25:10;97204.84;;;10.32;71.84
9839;BME280;4958;48.150;11.506;2022-11-11T08:27:38;97198.47;;;10.36;71.87
9839;BME280;4958;48.150;11.506;2022-11-11T08:30:06;97203.06;;;10.43;71.31
9839;BME280;4958;48.150;11.506;2022-11-11T08:32:33;97195.47;;;10.41;71.81
9839;BME280;4958;48.150;11.506;2022-11-11T08:35:01;97191.25;;;10.40;71.34
9839;BME280;4958;48.150;11.506;2022-11-11T08:37:28;97192.63;;;10.44;71.35
9839;BME280;4958;48.150;11.506;2022-11-11T08:39:57;97194.41;;;10.53;71.66
9839;BME280;4958;48.150;11.506;2022-11-11T08:42:30;97201.84;;;10.66;71.85
9839;BME280;4958;48.150;11.506;2022-11-11T08:45:12;97187.19;;;10.76;71.44
9839;BME280;4958;48.150;11.506;2022-11-11T08:47:43;97185.66;;;10.83;71.26
9839;BME280;4958;48.150;11.506;2022-11-11T08:50:13;97179.28;;;10.87;71.13
9839;BME280;4958;48.150;11.506;2022-11-11T08:52:45;97172.47;;;11.05;71.87
9839;BME280;4958;48.150;11.506;2022-11-11T08:55:11;97175.94;;;11.24;71.16
9839;BME280;4958;48.150;11.506;2022-11-11T08:57:41;97177.53;;;11.34;70.40
9839;BME280;4958;48.150;11.506;2022-11-11T09:00:20;97171.22;;;11.47;70.12
9839;BME280;4958;48.150;11.506;2022-11-11T09:02:48;97169.84;;;11.52;69.38
9839;BME280;4958;48.150;11.506;2022-11-11T09:05:44;97168.97;;;11.61;68.94
9839;BME280;4958;48.150;11.506;2022-11-11T09:08:19;97163.53;;;11.64;68.69
9839;BME280;4958;48.150;11.506;2022-11-11T09:10:50;97169.84;;;11.80;68.20
9839;BME280;4958;48.150;11.506;2022-11-11T09:13:21;97162.59;;;11.93;67.51
9839;BME280;4958;48.150;11.506;2022-11-11T09:15:47;97168.88;;;12.08;66.70
9839;BME280;4958;48.150;11.506;2022-11-11T09:18:16;97161.13;;;12.26;66.68
9839;BME280;4958;48.150;11.506;2022-11-11T09:20:44;97167.50;;;12.31;66.13
9839;BME280;4958;48.150;11.506;2022-11-11T09:23:10;97166.50;;;12.50;69.92
9839;BME280;4958;48.150;11.506;2022-11-11T09:25:51;97166.81;;;12.73;67.40
9839;BME280;4958;48.150;11.506;2022-11-11T09:28:18;97163.50;;;12.80;65.49
9839;BME280;4958;48.150;11.506;2022-11-11T09:30:46;97168.81;;;12.79;63.43
9839;BME280;4958;48.150;11.506;2022-11-11T09:33:21;97167.91;;;12.88;63.60
9839;BME280;4958;48.150;11.506;2022-11-11T09:35:49;97166.19;;;12.97;63.60
9839;BME280;4958;48.150;11.506;2022-11-11T09:38:16;97173.69;;;13.08;64.02
9839;BME280;4958;48.150;11.506;2022-11-11T09:40:54;97168.72;;;13.14;64.15
9839;BME280;4958;48.150;11.506;2022-11-11T09:43:30;97170.47;;;13.14;63.14
9839;BME280;4958;48.150;11.506;2022-11-11T09:46:09;97171.19;;;13.16;62.68
9839;BME280;4958;48.150;11.506;2022-11-11T09:48:59;97172.34;;;13.22;62.16
9839;BME280;4958;48.150;11.506;2022-11-11T09:51:36;97170.94;;;13.35;62.02
9839;BME280;4958;48.150;11.506;2022-11-11T09:54:15;97170.19;;;13.43;61.90
9839;BME280;4958;48.150;11.506;2022-11-11T09:56:43;97178.47;;;13.46;61.89
9839;BME280;4958;48.150;11.506;2022-11-11T09:59:19;97173.44;;;13.53;62.36
9839;BME280;4958;48.150;11.506;2022-11-11T10:02:07;97182.34;;;13.51;61.03
9839;BME280;4958;48.150;11.506;2022-11-11T10:04:44;97179.56;;;13.44;62.36
9839;BME280;4958;48.150;11.506;2022-11-11T10:07:23;97185.34;;;13.38;62.06
9839;BME280;4958;48.150;11.506;2022-11-11T10:09:54;97182.63;;;13.39;62.76
9839;BME280;4958;48.150;11.506;2022-11-11T10:12:25;97182.31;;;13.42;65.40
9839;BME280;4958;48.150;11.506;2022-11-11T10:14:59;97178.94;;;13.50;63.03
9839;BME280;4958;48.150;11.506;2022-11-11T10:17:32;97174.09;;;13.55;63.02
9839;BME280;4958;48.150;11.506;2022-11-11T10:20:10;97175.38;;;13.51;64.22
9839;BME280;4958;48.150;11.506;2022-11-11T10:22:44;97169.03;;;13.79;64.18
9839;BME280;4958;48.150;11.506;2022-11-11T10:25:20;97179.59;;;13.94;62.76
9839;BME280;4958;48.150;11.506;2022-11-11T10:27:50;97173.44;;;13.95;63.66
9839;BME280;4958;48.150;11.506;2022-11-11T10:30:22;97175.56;;;14.00;63.84
9839;BME280;4958;48.150;11.506;2022-11-11T10:32:53;97172.81;;;14.01;64.44
9839;BME280;4958;48.150;11.506;2022-11-11T10:35:24;97170.69;;;13.97;63.38
9839;BME280;4958;48.150;11.506;2022-11-11T10:37:59;97177.16;;;13.93;63.13
9839;BME280;4958;48.150;11.506;2022-11-11T10:40:34;97174.28;;;14.04;62.57
9839;BME280;4958;48.150;11.506;2022-11-11T10:43:03;97175.53;;;13.92;62.67
9839;BME280;4958;48.150;11.506;2022-11-11T10:45:38;97182.63;;;13.90;62.71
9839;BME280;4958;48.150;11.506;2022-11-11T10:48:08;97171.84;;;14.02;63.27
9839;BME280;4958;48.150;11.506;2022-11-11T10:50:40;97168.28;;;14.11;62.55
9839;BME280;4958;48.150;11.506;2022-11-11T10:53:16;97162.28;;;14.11;61.97
9839;BME280;4958;48.150;11.506;2022-11-11T10:55:48;97157.91;;;14.03;61.55
9839;BME280;4958;48.150;11.506;2022-11-11T10:58:21;97162.59;;;14.00;64.01
9839;BME280;4958;48.150;11.506;2022-11-11T11:00:52;97171.53;;;14.13;62.41
9839;BME280;4958;48.150;11.506;2022-11-11T11:03:22;97166.03;;;14.25;62.53
9839;BME280;4958;48.150;11.506;2022-11-11T11:05:54;97172.53;;;14.37;62.61
9839;BME280;4958;48.150;11.506;2022-11-11T11:08:29;97174.34;;;14.52;62.09
9839;BME280;4958;48.150;11.506;2022-11-11T11:11:02;97187.47;;;14.67;61.98
9839;BME280;4958;48.150;11.506;2022-11-11T11:13:38;97185.38;;;14.79;64.05
9839;BME280;4958;48.150;11.506;2022-11-11T11:16:15;97186.31;;;14.86;63.33
9839;BME280;4958;48.150;11.506;2022-11-11T11:19:13;97181.47;;;14.91;60.58
9839;BME280;4958;48.150;11.506;2022-11-11T11:21:47;97181.13;;;14.94;60.19
9839;BME280;4958;48.150;11.506;2022-11-11T11:24:20;97179.47;;;15.01;60.56
9839;BME280;4958;48.150;11.506;2022-11-11T11:26:48;97172.19;;;15.13;61.09
9839;BME280;4958;48.150;11.506;2022-11-11T11:29:24;97171.53;;;15.19;60.59
9839;BME280;4958;48.150;11.506;2022-11-11T11:31:51;97175.91;;;15.18;60.83
9839;BME280;4958;48.150;11.506;2022-11-11T11:34:18;97166.13;;;15.29;60.84
9839;BME280;4958;48.150;11.506;2022-11-11T11:36:58;97160.78;;;15.38;60.78
9839;BME280;4958;48.150;11.506;2022-11-11T11:39:33;97164.34;;;15.37;60.71
9839;BME280;4958;48.150;11.506;2022-11-11T11:42:02;97161.28;;;15.26;59.77
9839;BME280;4958;48.150;11.506;2022-11-11T11:44:30;97163.44;;;15.14;60.60
9839;BME280;4958;48.150;11.506;2022-11-11T11:47:05;97158.56;;;15.11;62.80
9839;BME280;4958;48.150;11.506;2022-11-11T11:49:51;97151.44;;;15.05;62.97
9839;BME280;4958;48.150;11.506;2022-11-11T11:52:28;97153.28;;;14.80;62.87
9839;BME280;4958;48.150;11.506;2022-11-11T11:55:04;97143.06;;;14.78;63.55
9839;BME280;4958;48.150;11.506;2022-11-11T11:57:44;97137.41;;;14.59;62.56
9839;BME280;4958;48.150;11.506;2022-11-11T12:00:25;97140.03;;;14.42;63.35
9839;BME280;4958;48.150;11.506;2022-11-11T12:03:11;97144.22;;;14.51;63.48
9839;BME280;4958;48.150;11.506;2022-11-11T12:05:44;97139.84;;;14.52;63.16
9839;BME280;4958;48.150;11.506;2022-11-11T12:08:41;97134.97;;;14.49;63.68
9839;BME280;4958;48.150;11.506;2022-11-11T12:11:17;97129.94;;;14.47;63.67
9839;BME280;4958;48.150;11.506;2022-11-11T12:13:58;97140.50;;;14.62;63.02
9839;BME280;4958;48.150;11.506;2022-11-11T12:16:34;97143.22;;;14.69;62.57
9839;BME280;4958;48.150;11.506;2022-11-11T12:19:19;97150.53;;;14.73;61.55
9839;BME280;4958;48.150;11.506;2022-11-11T12:21:57;97144.00;;;14.85;61.79
9839;BME280;4958;48.150;11.506;2022-11-11T12:24:37;97146.75;;;15.00;62.24
9839;BME280;4958;48.150;11.506;2022-11-11T12:27:15;97139.91;;;15.07;61.34
9839;BME280;4958;48.150;11.506;2022-11-11T12:29:52;97137.84;;;14.95;60.57
9839;BME280;4958;48.150;11.506;2022-11-11T12:32:37;97140.72;;;15.08;61.12
9839;BME280;4958;48.150;11.506;2022-11-11T12:35:24;97136.00;;;15.19;60.54
9839;BME280;4958;48.150;11.506;2022-11-11T12:38:01;97133.03;;;15.31;60.56
9839;BME280;4958;48.150;11.506;2022-11-11T12:40:43;97136.53;;;15.54;60.12
9839;BME280;4958;48.150;11.506;2022-11-11T12:43:24;97132.91;;;15.71;59.90
9839;BME280;4958;48.150;11.506;2022-11-11T12:45:58;97131.31;;;15.93;59.73
9839;BME280;4958;48.150;11.506;2022-11-11T12:48:42;97125.94;;;15.95;59.13
9839;BME280;4958;48.150;11.506;2022-11-11T12:51:20;97126.75;;;15.95;59.24
9839;BME280;4958;48.150;11.506;2022-11-11T12:54:01;97118.97;;;15.95;58.98
9839;BME280;4958;48.150;11.506;2022-11-11T12:56:37;97119.47;;;15.91;59.16
9839;BME280;4958;48.150;11.506;2022-11-11T12:59:17;97121.84;;;15.77;58.73
9839;BME280;4958;48.150;11.506;2022-11-11T13:01:54;97128.38;;;15.65;59.00
9839;BME280;4958;48.150;11.506;2022-11-11T13:04:37;97126.28;;;15.61;59.82
9839;BME280;4958;48.150;11.506;2022-11-11T13:07:28;97131.50;;;15.52;60.03
9839;BME280;4958;48.150;11.506;2022-11-11T13:10:11;97139.28;;;15.52;60.46
9839;BME280;4958;48.150;11.506;2022-11-11T13:12:44;97137.50;;;15.53;60.52
9839;BME280;4958;48.150;11.506;2022-11-11T13:15:18;97137.84;;;15.50;60.66
9839;BME280;4958;48.150;11.506;2022-11-11T13:17:46;97136.06;;;15.42;60.80
9839;BME280;4958;48.150;11.506;2022-11-11T13:20:19;97142.75;;;15.37;61.18
9839;BME280;4958;48.150;11.506;2022-11-11T13:22:50;97135.19;;;15.19;61.42
9839;BME280;4958;48.150;11.506;2022-11-11T13:25:21;97139.75;;;15.09;61.98
9839;BME280;4958;48.150;11.506;2022-11-11T13:27:52;97137.66;;;15.04;62.06
9839;BME280;4958;48.150;11.506;2022-11-11T13:30:40;97132.63;;;15.03;64.18
9839;BME280;4958;48.150;11.506;2022-11-11T13:33:12;97138.97;;;15.00;64.59
9839;BME280;4958;48.150;11.506;2022-11-11T13:35:42;97132.63;;;15.03;65.35
9839;BME280;4958;48.150;11.506;2022-11-11T13:38:22;97130.19;;;15.01;63.55
9839;BME280;4958;48.150;11.506;2022-11-11T13:40:51;97130.72;;;14.97;63.34
9839;BME280;4958;48.150;11.506;2022-11-11T13:43:21;97122.28;;;14.86;63.65